Air Resources Laboratory banner image
Air Resources Laboratory web site National Oceanic and Atmospheric Administration (NOAA)

ok metar


K1F0 150955Z AUTO 00000KT 10SM CLR 00/M03 A3024 RMK AO2=
KADH 150955Z AUTO 28003KT 10SM CLR M01/M03 A3023 RMK AO2=
KADM 150955Z AUTO 00000KT 10SM CLR M03/M04 A3024 RMK AO2 T10301044=
KAXS 150955Z AUTO 36007KT 10SM CLR M02/M05 A3032 RMK AO2 T10161046=
KBVO 150953Z AUTO 00000KT 10SM CLR 03/M01 A3022 RMK AO2 SLP232 T00281011=
KCLK 150955Z AUTO 30003KT 10SM CLR M02/M05 A3029 RMK AO2=
KCSM 150953Z AUTO 31009KT 10SM CLR M01/M05 A3028 RMK AO2 SLP261 T10111050=
KDUA 150955Z AUTO 32003KT 10SM CLR 01/M02 A3023 RMK AO2=
KEND 150956Z AUTO 32008KT M M FEW065 M01/M03 A3024 RMK AO2 SLP249 T10111031
 RVRNO $=
KFDR 150953Z AUTO 34010KT 10SM CLR 02/M03 A3026 RMK AO2 SLP248 T00221033=
KFSI 150956Z AUTO 34010KT 10SM CLR 03/M02 A3026 RMK AO2 SLP250 T00291017=
KGAG 150953Z AUTO 25007KT 10SM CLR M05/M07 A3027 RMK AO2 SLP262 T10501072=
KGOK 150953Z AUTO 31004KT 10SM CLR 00/M02 A3025 RMK AO2 SLP252 T00001022=
KGUY 150953Z AUTO 27008KT 10SM CLR M04/M07 A3027 RMK AO2 SLP258 T10441067=
KHBR 150953Z AUTO 33007KT 10SM CLR M02/M05 A3029 RMK AO2 SLP263 T10171050=
KLAW 150953Z AUTO 33006KT 10SM CLR 03/M02 A3027 RMK AO2 SLP254 T00281022=
KLTS 150956Z AUTO 32010KT 10SM CLR 01/M04 A3029 RMK AO2 SLP262 T00091041 $=
KMKO 150953Z AUTO VRB03KT 10SM CLR M02/M04 A3021 RMK AO2 SLP232 T10171039=
KMLC 150953Z AUTO 00000KT 10SM CLR M03/M05 A3021 RMK AO2 SLP233 T10331050=
KOKC 150952Z 33011KT 10SM CLR 00/M03 A3025 RMK AO2 SLP248 T00001028=
KOUN 150955Z AUTO 30010KT 10SM CLR 01/M02 A3023 RMK AO2 T00121018=
KPNC 150953Z AUTO 30003KT 10SM CLR M01/M03 A3023 RMK AO2 SLP239 T10061033=
KPWA 150953Z AUTO 32009KT 10SM CLR 01/M02 A3026 RMK AO2 SLP250 T00111022=
KRVS 150953Z AUTO 32004KT 10SM FEW038 04/00 A3021 RMK AO2 SLP236 T00440000=
KSWO 150953Z AUTO 30008KT 10SM CLR 01/M02 A3023 RMK AO2 SLP240 T00061022=
KTIK 150956Z AUTO 33009KT 10SM CLR 02/M02 A3023 RMK AO2 SLP250 T00151019=
KTUL 150953Z 30006KT 10SM FEW030 BKN043 04/01 A3021 RMK AO2 SLP231 T00440011=
KWDG 150955Z AUTO 32008KT 10SM CLR 01/M01 A3024 RMK AO2=
KWWR 150955Z AUTO 30006KT 10SM CLR M04/M07 A3030 RMK AO2=